Rhapsody Of The Seas — C6UA2 — position and weather

sailwx.info

Track history (hours):
 
Tides and Currents Weather Stations Pressure Air Temp Water Temp Dewpoint Dewpoint Depression Visibility Wind Speed Wind Dir Waves Ship Positions

Rhapsody Of The Seas

Last reported at 2015-Sep-05 07:33 UTC. Time now 2015-Sep-05 07:54 UTC.
Position N 38°08' E 015°36'.

Type: Passenger vessel. MMSI: 311805000.

Date/timePositionNaut miles runAvg speedWind from/ knotsBaromVisibWave heightAir tempDewpointWater temp
2015-Sep-05 07:33N 38°08' E 015°36'1616.1
2015-Sep-05 06:34N 37°51' E 015°35'1616.1
2015-Sep-05 05:33N 37°43' E 015°53'1716.8
2015-Sep-05 04:33N 37°41' E 016°14'1717.0
2015-Sep-05 03:33N 37°40' E 016°35'33010.6
2015-Sep-03 20:26N 36°30' E 023°20'1516.8
2015-Sep-03 19:34N 36°43' E 023°26'1717.3
2015-Sep-03 18:33N 36°59' E 023°35'1716.7
2015-Sep-03 17:33N 37°15' E 023°42'1616.2
2015-Sep-03 16:34N 37°31' E 023°45'1716.9
2015-Sep-03 15:34N 37°47' E 023°38'9 9.5
2015-Sep-03 14:34N 37°56' E 023°38'0 0.0
2015-Sep-03 13:33N 37°56' E 023°38'0 0.0
2015-Sep-03 12:33N 37°56' E 023°38'0 0.0
2015-Sep-03 11:33N 37°56' E 023°38'0 0.0
2015-Sep-03 10:33N 37°56' E 023°38'0 0.0
2015-Sep-03 09:33N 37°56' E 023°38'0 0.0
2015-Sep-03 08:33N 37°56' E 023°38'0 0.0
2015-Sep-03 07:33N 37°56' E 023°38'0 0.0
2015-Sep-03 06:33N 37°56' E 023°38'0 0.0
2015-Sep-03 05:30N 37°56' E 023°38'0 0.0
2015-Sep-03 04:33N 37°56' E 023°38'0 0.0
2015-Sep-03 03:33N 37°56' E 023°38'0 0.0
2015-Sep-03 02:33N 37°56' E 023°38'1 1.1
2015-Sep-03 01:33N 37°56' E 023°37'7 7.2
2015-Sep-03 00:33N 37°49' E 023°40'22473974.5
2015-Sep-03 00:00N 37°42' W 023°42'22525147.5 200 / 61011.0 5.4 0.524.0
2015-Sep-02 23:33N 37°42' E 023°44'8 7.9
2015-Sep-02 22:33N 37°36' E 023°51'8 8.2
2015-Sep-02 21:33N 37°33' E 024°00'38 9.5
2015-Sep-02 17:32N 37°33' E 024°48'9 9.1
2015-Sep-02 16:33N 37°32' E 024°59'9 9.4
2015-Sep-02 15:34N 37°29' E 025°11'7 6.8
2015-Sep-02 14:31N 37°28' E 025°19'0 0.0
2015-Sep-02 13:31N 37°28' E 025°19'0 0.0
2015-Sep-02 12:32N 37°28' E 025°19'0 0.0
2015-Sep-02 11:31N 37°28' E 025°19'0 0.0
2015-Sep-02 10:32N 37°28' E 025°19'0 0.0
2015-Sep-02 09:31N 37°28' E 025°19'0 0.0
2015-Sep-02 08:31N 37°28' E 025°19'0 0.0
2015-Sep-02 07:32N 37°28' E 025°19'0 0.0
2015-Sep-02 06:31N 37°28' E 025°19'0 0.0
2015-Sep-02 05:32N 37°28' E 025°19'0 0.0
2015-Sep-02 04:32N 37°28' E 025°19'3 3.1
2015-Sep-02 03:33N 37°28' E 025°16'1111.2
2015-Sep-02 02:34N 37°23' E 025°03'1111.0
2015-Sep-02 01:33N 37°14' E 024°55'2511.0
2015-Sep-01 23:16N 36°49' E 024°47'1211.2
2015-Sep-01 22:10N 36°38' E 024°43'610.5
2015-Sep-01 21:33N 36°32' E 024°46'1510.3
2015-Sep-01 20:04N 36°28' E 025°05'611.3
2015-Sep-01 19:33N 36°29' E 025°12'1010.3
2015-Sep-01 18:33N 36°25' E 025°24'1 0.8
2015-Sep-01 17:32N 36°25' E 025°25'0 0.0
2015-Sep-01 16:32N 36°25' E 025°25'0 0.0
2015-Sep-01 15:32N 36°25' E 025°25'0 0.0
2015-Sep-01 14:32N 36°25' E 025°25'0 0.0
2015-Sep-01 13:33N 36°25' E 025°25'0 0.0
2015-Sep-01 12:33N 36°25' E 025°25'0 0.0
2015-Sep-01 11:33N 36°25' E 025°25'0 0.0
2015-Sep-01 10:32N 36°25' E 025°25'0 0.1
2015-Sep-01 09:32N 36°25' E 025°25'1313.1
2015-Sep-01 08:31N 36°21' E 025°09'1616.8
2015-Sep-01 07:33N 36°18' E 024°49'1716.8
2015-Sep-01 06:33N 36°16' E 024°29'31819.4
2015-Aug-31 14:11N 37°11' E 017°59'5919.9
2015-Aug-31 11:13N 37°29' E 016°48'5719.8
2015-Aug-31 08:20N 37°47' E 015°40'1418.3
2015-Aug-31 07:33N 38°00' E 015°32'1817.6
2015-Aug-31 06:34N 38°17' E 015°41'1717.3
2015-Aug-31 05:33N 38°33' E 015°33'2219.8
2015-Aug-31 04:27N 38°52' E 015°19'5920.3
2015-Aug-31 01:31N 39°34' E 014°24'2020.6
2015-Aug-31 00:33N 39°46' E 014°05'2020.5
2015-Aug-30 23:33N 39°59' E 013°44'2020.3
2015-Aug-30 22:33N 40°12' E 013°23'2120.4
2015-Aug-30 21:32N 40°25' E 013°02'2020.2
2015-Aug-30 20:34N 40°38' E 012°42'2120.4
2015-Aug-30 19:31N 40°55' E 012°26'2020.7
2015-Aug-30 18:33N 41°13' E 012°14'2020.0
2015-Aug-30 17:33N 41°31' E 012°02'2120.4
2015-Aug-30 16:32N 41°50' E 011°50'1 0.1
2015-Aug-30 00:25N 41°48' E 011°51'2419.7
2015-Aug-29 23:14N 41°27' E 012°04'1420.5
2015-Aug-29 22:33N 41°15' E 012°13'2120.5
2015-Aug-29 21:33N 40°56' E 012°25'2121.3
2015-Aug-29 20:33N 40°39' E 012°41'4422.1
2015-Aug-29 18:33N 40°11' E 013°26'2221.9
2015-Aug-29 17:33N 39°57' E 013°48'2221.7
2015-Aug-29 16:33N 39°43' E 014°09'2221.8
2015-Aug-29 15:33N 39°29' E 014°31'2221.7
2015-Aug-29 14:33N 39°15' E 014°53'2321.6
2015-Aug-29 13:30N 38°60' E 015°14'2721.9
2015-Aug-29 12:15N 38°36' E 015°31'1521.9
2015-Aug-29 11:33N 38°22' E 015°40'1515.2
2015-Aug-29 10:34N 38°07' E 015°36'1919.4
2015-Aug-29 09:33N 37°48' E 015°39'2220.3
2015-Aug-29 08:30N 37°40' E 016°04'44913.6
2015-Aug-27 23:33N 35°51' E 025°08'1814.5
2015-Aug-27 22:17N 35°60' E 025°28'1214.8
2015-Aug-27 21:28N 36°06' E 025°41'1415.0
2015-Aug-27 20:33N 36°12' E 025°55'1515.3
2015-Aug-27 19:33N 36°19' E 026°13'1515.2
2015-Aug-27 18:33N 36°26' E 026°29'1514.7
2015-Aug-27 17:33N 36°32' E 026°46'2114.6
2015-Aug-27 16:08N 36°43' E 027°08'1911.9
2015-Aug-27 14:33N 36°57' E 027°24'52 2.9
2015-Aug-26 20:24N 37°13' E 026°21'1011.5
2015-Aug-26 19:32N 37°22' E 026°15'2712.6
2015-Aug-26 17:22N 37°47' E 026°29'  
Track history (hours):
 
Tides and Currents Weather Stations Pressure Air Temp Water Temp Dewpoint Dewpoint Depression Visibility Wind Speed Wind Dir Waves Ship Positions

Rhapsody Of The Seas

Last reported at 2015-Sep-05 07:33 UTC. Time now 2015-Sep-05 07:54 UTC.
Position N 38°08' E 015°36'.

Type: Passenger vessel. MMSI: 311805000.

Date/timePositionNaut miles runAvg speedWind from/ knotsBaromVisibWave heightAir tempDewpointWater temp
2015-Sep-05 07:33N 38°08' E 015°36'1616.1
2015-Sep-05 06:34N 37°51' E 015°35'1616.1
2015-Sep-05 05:33N 37°43' E 015°53'1716.8
2015-Sep-05 04:33N 37°41' E 016°14'1717.0
2015-Sep-05 03:33N 37°40' E 016°35'33010.6
2015-Sep-03 20:26N 36°30' E 023°20'1516.8
2015-Sep-03 19:34N 36°43' E 023°26'1717.3
2015-Sep-03 18:33N 36°59' E 023°35'1716.7
2015-Sep-03 17:33N 37°15' E 023°42'1616.2
2015-Sep-03 16:34N 37°31' E 023°45'1716.9
2015-Sep-03 15:34N 37°47' E 023°38'9 9.5
2015-Sep-03 14:34N 37°56' E 023°38'0 0.0
2015-Sep-03 13:33N 37°56' E 023°38'0 0.0
2015-Sep-03 12:33N 37°56' E 023°38'0 0.0
2015-Sep-03 11:33N 37°56' E 023°38'0 0.0
2015-Sep-03 10:33N 37°56' E 023°38'0 0.0
2015-Sep-03 09:33N 37°56' E 023°38'0 0.0
2015-Sep-03 08:33N 37°56' E 023°38'0 0.0
2015-Sep-03 07:33N 37°56' E 023°38'0 0.0
2015-Sep-03 06:33N 37°56' E 023°38'0 0.0
2015-Sep-03 05:30N 37°56' E 023°38'0 0.0
2015-Sep-03 04:33N 37°56' E 023°38'0 0.0
2015-Sep-03 03:33N 37°56' E 023°38'0 0.0
2015-Sep-03 02:33N 37°56' E 023°38'1 1.1
2015-Sep-03 01:33N 37°56' E 023°37'7 7.2
2015-Sep-03 00:33N 37°49' E 023°40'22473974.5
2015-Sep-03 00:00N 37°42' W 023°42'22525147.5 200 / 61011.0 5.4 0.524.0
2015-Sep-02 23:33N 37°42' E 023°44'8 7.9
2015-Sep-02 22:33N 37°36' E 023°51'8 8.2
2015-Sep-02 21:33N 37°33' E 024°00'38 9.5
2015-Sep-02 17:32N 37°33' E 024°48'9 9.1
2015-Sep-02 16:33N 37°32' E 024°59'9 9.4
2015-Sep-02 15:34N 37°29' E 025°11'7 6.8
2015-Sep-02 14:31N 37°28' E 025°19'0 0.0
2015-Sep-02 13:31N 37°28' E 025°19'0 0.0
2015-Sep-02 12:32N 37°28' E 025°19'0 0.0
2015-Sep-02 11:31N 37°28' E 025°19'0 0.0
2015-Sep-02 10:32N 37°28' E 025°19'0 0.0
2015-Sep-02 09:31N 37°28' E 025°19'0 0.0
2015-Sep-02 08:31N 37°28' E 025°19'0 0.0
2015-Sep-02 07:32N 37°28' E 025°19'0 0.0
2015-Sep-02 06:31N 37°28' E 025°19'0 0.0
2015-Sep-02 05:32N 37°28' E 025°19'0 0.0
2015-Sep-02 04:32N 37°28' E 025°19'3 3.1
2015-Sep-02 03:33N 37°28' E 025°16'1111.2
2015-Sep-02 02:34N 37°23' E 025°03'1111.0
2015-Sep-02 01:33N 37°14' E 024°55'2511.0
2015-Sep-01 23:16N 36°49' E 024°47'1211.2
2015-Sep-01 22:10N 36°38' E 024°43'610.5
2015-Sep-01 21:33N 36°32' E 024°46'1510.3
2015-Sep-01 20:04N 36°28' E 025°05'611.3
2015-Sep-01 19:33N 36°29' E 025°12'1010.3
2015-Sep-01 18:33N 36°25' E 025°24'1 0.8
2015-Sep-01 17:32N 36°25' E 025°25'0 0.0
2015-Sep-01 16:32N 36°25' E 025°25'0 0.0
2015-Sep-01 15:32N 36°25' E 025°25'0 0.0
2015-Sep-01 14:32N 36°25' E 025°25'0 0.0
2015-Sep-01 13:33N 36°25' E 025°25'0 0.0
2015-Sep-01 12:33N 36°25' E 025°25'0 0.0
2015-Sep-01 11:33N 36°25' E 025°25'0 0.0
2015-Sep-01 10:32N 36°25' E 025°25'0 0.1
2015-Sep-01 09:32N 36°25' E 025°25'1313.1
2015-Sep-01 08:31N 36°21' E 025°09'1616.8
2015-Sep-01 07:33N 36°18' E 024°49'1716.8
2015-Sep-01 06:33N 36°16' E 024°29'31819.4
2015-Aug-31 14:11N 37°11' E 017°59'5919.9
2015-Aug-31 11:13N 37°29' E 016°48'5719.8
2015-Aug-31 08:20N 37°47' E 015°40'1418.3
2015-Aug-31 07:33N 38°00' E 015°32'1817.6
2015-Aug-31 06:34N 38°17' E 015°41'1717.3
2015-Aug-31 05:33N 38°33' E 015°33'2219.8
2015-Aug-31 04:27N 38°52' E 015°19'5920.3
2015-Aug-31 01:31N 39°34' E 014°24'2020.6
2015-Aug-31 00:33N 39°46' E 014°05'2020.5
2015-Aug-30 23:33N 39°59' E 013°44'2020.3
2015-Aug-30 22:33N 40°12' E 013°23'2120.4
2015-Aug-30 21:32N 40°25' E 013°02'2020.2
2015-Aug-30 20:34N 40°38' E 012°42'2120.4
2015-Aug-30 19:31N 40°55' E 012°26'2020.7
2015-Aug-30 18:33N 41°13' E 012°14'2020.0
2015-Aug-30 17:33N 41°31' E 012°02'2120.4
2015-Aug-30 16:32N 41°50' E 011°50'1 0.1
2015-Aug-30 00:25N 41°48' E 011°51'2419.7
2015-Aug-29 23:14N 41°27' E 012°04'1420.5
2015-Aug-29 22:33N 41°15' E 012°13'2120.5
2015-Aug-29 21:33N 40°56' E 012°25'2121.3
2015-Aug-29 20:33N 40°39' E 012°41'4422.1
2015-Aug-29 18:33N 40°11' E 013°26'2221.9
2015-Aug-29 17:33N 39°57' E 013°48'2221.7
2015-Aug-29 16:33N 39°43' E 014°09'2221.8
2015-Aug-29 15:33N 39°29' E 014°31'2221.7
2015-Aug-29 14:33N 39°15' E 014°53'2321.6
2015-Aug-29 13:30N 38°60' E 015°14'2721.9
2015-Aug-29 12:15N 38°36' E 015°31'1521.9
2015-Aug-29 11:33N 38°22' E 015°40'1515.2
2015-Aug-29 10:34N 38°07' E 015°36'1919.4
2015-Aug-29 09:33N 37°48' E 015°39'2220.3
2015-Aug-29 08:30N 37°40' E 016°04'44913.6
2015-Aug-27 23:33N 35°51' E 025°08'1814.5
2015-Aug-27 22:17N 35°60' E 025°28'1214.8
2015-Aug-27 21:28N 36°06' E 025°41'1415.0
2015-Aug-27 20:33N 36°12' E 025°55'1515.3
2015-Aug-27 19:33N 36°19' E 026°13'1515.2
2015-Aug-27 18:33N 36°26' E 026°29'1514.7
2015-Aug-27 17:33N 36°32' E 026°46'2114.6
2015-Aug-27 16:08N 36°43' E 027°08'1911.9
2015-Aug-27 14:33N 36°57' E 027°24'52 2.9
2015-Aug-26 20:24N 37°13' E 026°21'1011.5
2015-Aug-26 19:32N 37°22' E 026°15'2712.6
2015-Aug-26 17:22N 37°47' E 026°29'  

Dump ship's entire track history